createdAt,value
2024-02-24T00:02:33.599Z,98783.44
2024-02-24T00:06:35.120Z,98786.00
2024-02-24T00:10:36.695Z,98786.06
2024-02-24T00:14:38.248Z,98797.53
2024-02-24T00:18:42.242Z,98783.09
2024-02-24T00:22:44.223Z,98788.28
2024-02-24T00:26:46.138Z,98782.22
2024-02-24T00:30:47.930Z,98784.88
2024-02-24T00:34:49.500Z,98789.34
2024-02-24T00:38:51.209Z,98780.22
2024-02-24T00:42:53.018Z,98790.66
2024-02-24T00:46:54.467Z,98785.91
2024-02-24T00:50:56.098Z,98793.94
2024-02-24T00:54:57.653Z,98796.84
2024-02-24T00:58:59.068Z,98792.03
2024-02-24T01:03:01.880Z,98783.91
2024-02-24T01:07:03.403Z,98789.66
2024-02-24T01:11:06.684Z,98791.59
2024-02-24T01:15:08.749Z,98788.72
2024-02-24T01:19:10.482Z,98789.78
2024-02-24T01:23:12.036Z,98789.78
2024-02-24T01:27:13.825Z,98782.75
2024-02-24T01:31:15.300Z,98770.44
2024-02-24T01:35:20.518Z,98769.47
2024-02-24T01:39:22.273Z,98782.78
2024-02-24T01:43:28.269Z,98782.25
2024-02-24T01:47:31.448Z,98785.75
2024-02-24T01:51:33.356Z,98772.72
2024-02-24T01:55:34.960Z,98774.50
2024-02-24T01:59:37.091Z,98778.19
2024-02-24T02:03:38.904Z,98789.25
2024-02-24T02:07:40.480Z,98798.31
2024-02-24T02:11:48.133Z,98799.03
2024-02-24T02:15:58.439Z,98789.78
2024-02-24T02:20:04.793Z,98793.09
2024-02-24T02:24:06.839Z,98801.09
2024-02-24T02:28:08.410Z,98810.78
2024-02-24T02:32:10.022Z,98807.84
2024-02-24T02:36:11.915Z,98793.59
2024-02-24T02:40:13.470Z,98804.44
2024-02-24T02:44:15.777Z,98796.16
2024-02-24T02:48:17.489Z,98801.03
2024-02-24T02:52:19.033Z,98795.56
2024-02-24T02:56:22.219Z,98797.00
2024-02-24T03:00:23.801Z,98809.09
2024-02-24T03:04:25.242Z,98809.63
2024-02-24T03:08:26.801Z,98810.78
2024-02-24T03:12:28.621Z,98817.63
2024-02-24T03:16:30.693Z,98810.56
2024-02-24T03:20:32.200Z,98807.38
2024-02-24T03:24:34.184Z,98815.69
2024-02-24T03:28:35.626Z,98815.63
2024-02-24T03:32:37.123Z,98824.63
2024-02-24T03:36:39.492Z,98822.16
2024-02-24T03:40:41.545Z,98825.06
2024-02-24T03:44:43.043Z,98825.69
2024-02-24T03:48:47.515Z,98829.34
2024-02-24T03:52:49.566Z,98832.94
2024-02-24T03:56:51.316Z,98841.88
2024-02-24T04:00:53.138Z,98844.41
2024-02-24T04:04:54.683Z,98840.28
2024-02-24T04:08:56.252Z,98846.66
2024-02-24T04:12:57.897Z,98842.97
2024-02-24T04:16:59.344Z,98849.28
2024-02-24T04:21:00.957Z,98845.00
2024-02-24T04:25:02.450Z,98838.34
2024-02-24T04:29:03.926Z,98842.16
2024-02-24T04:33:08.627Z,98848.16
2024-02-24T04:37:10.144Z,98849.59
2024-02-24T04:41:11.586Z,98850.66
2024-02-24T04:45:13.055Z,98852.44
2024-02-24T04:49:14.783Z,98869.69
2024-02-24T04:53:16.262Z,98870.69
2024-02-24T04:57:17.678Z,98870.53
2024-02-24T05:01:19.265Z,98870.78
2024-02-24T05:05:21.204Z,98878.13
2024-02-24T05:09:22.853Z,98881.59
2024-02-24T05:13:24.629Z,98889.81
2024-02-24T05:17:26.221Z,98895.13
2024-02-24T05:21:27.731Z,98900.53
2024-02-24T05:25:31.554Z,98894.81
2024-02-24T05:29:33.781Z,98884.31
2024-02-24T05:33:35.349Z,98898.53
2024-02-24T05:37:37.189Z,98890.13
2024-02-24T05:41:38.911Z,98898.44
2024-02-24T05:45:41.965Z,98899.19
2024-02-24T05:49:43.903Z,98907.72
2024-02-24T05:53:45.384Z,98909.78
2024-02-24T05:57:46.780Z,98912.59
2024-02-24T06:01:48.452Z,98908.44
2024-02-24T06:05:50.534Z,98922.59
2024-02-24T06:09:52.080Z,98919.94
2024-02-24T06:13:53.993Z,98930.44
2024-02-24T06:17:55.601Z,98924.13
2024-02-24T06:21:57.837Z,98940.41
2024-02-24T06:25:59.469Z,98938.03
2024-02-24T06:30:00.908Z,98942.09
2024-02-24T06:34:08.686Z,98944.44
2024-02-24T06:38:10.914Z,98942.75
2024-02-24T06:42:12.431Z,98938.34
2024-02-24T06:46:15.783Z,98951.03
2024-02-24T06:50:17.306Z,98957.47
2024-02-24T06:54:18.700Z,98962.31
2024-02-24T06:58:20.299Z,98962.50
2024-02-24T07:02:21.963Z,98971.91
2024-02-24T07:06:23.711Z,98983.44
2024-02-24T07:10:25.538Z,98988.00
2024-02-24T07:14:26.889Z,98986.06
2024-02-24T07:18:28.334Z,98993.88
2024-02-24T07:22:30.165Z,98998.06
2024-02-24T07:26:31.567Z,99006.91
2024-02-24T07:30:33.024Z,99003.16
2024-02-24T07:34:34.939Z,99012.00
2024-02-24T07:38:40.272Z,99023.41
2024-02-24T07:42:41.696Z,99027.53
2024-02-24T07:46:43.115Z,99037.88
2024-02-24T07:50:46.190Z,99045.31
2024-02-24T07:54:47.615Z,99045.28
2024-02-24T07:58:49.566Z,99055.41
2024-02-24T08:02:51.036Z,99061.81
2024-02-24T08:06:52.617Z,99063.13
2024-02-24T08:10:54.104Z,99065.53
2024-02-24T08:14:55.664Z,99076.91
2024-02-24T08:18:57.421Z,99083.13
2024-02-24T08:22:59.481Z,99092.09
2024-02-24T08:27:01.551Z,99086.19
2024-02-24T08:31:03.604Z,99091.84
2024-02-24T08:35:05.823Z,99097.16
2024-02-24T08:39:07.642Z,99109.59
2024-02-24T08:43:09.269Z,99121.81
2024-02-24T08:47:10.857Z,99126.88
2024-02-24T08:51:12.701Z,99124.94
2024-02-24T08:55:14.375Z,99134.50
2024-02-24T08:59:15.953Z,99133.94
2024-02-24T09:03:18.655Z,99148.50
2024-02-24T09:07:21.559Z,99145.88
2024-02-24T09:11:23.484Z,99141.69
2024-02-24T09:15:24.954Z,99152.66
2024-02-24T09:19:27.482Z,99142.16
2024-02-24T09:23:29.195Z,99147.09
2024-02-24T09:27:30.965Z,99148.31
2024-02-24T09:31:32.455Z,99157.38
2024-02-24T09:35:34.288Z,99162.78
2024-02-24T09:39:35.762Z,99160.44
2024-02-24T09:43:37.740Z,99185.22
2024-02-24T09:47:40.776Z,99176.38
2024-02-24T09:51:47.352Z,99169.59
2024-02-24T09:55:50.335Z,99175.78
2024-02-24T09:59:51.997Z,99203.94
2024-02-24T10:03:55.493Z,99189.84
2024-02-24T10:07:59.203Z,99199.66
2024-02-24T10:12:02.527Z,99199.28
2024-02-24T10:16:06.774Z,99205.41
2024-02-24T10:20:09.861Z,99221.03
2024-02-24T10:24:11.295Z,99216.56
2024-02-24T10:28:12.679Z,99233.91
2024-02-24T10:32:14.336Z,99255.31
2024-02-24T10:36:16.274Z,99264.19
2024-02-24T10:40:18.926Z,99261.19
2024-02-24T10:44:23.499Z,99273.41
2024-02-24T10:48:25.906Z,99273.69
2024-02-24T10:52:27.625Z,99282.56
2024-02-24T10:56:29.902Z,99283.41
2024-02-24T11:00:33.293Z,99287.84
2024-02-24T11:04:37.325Z,99313.66
2024-02-24T11:08:46.033Z,99322.38
2024-02-24T11:12:51.630Z,99297.91
2024-02-24T11:16:53.313Z,99283.47
2024-02-24T11:20:55.333Z,99302.75
2024-02-24T11:25:05.147Z,99298.59
2024-02-24T11:29:07.574Z,99300.28
2024-02-24T11:33:25.387Z,99298.69
2024-02-24T11:37:29.955Z,99307.06
2024-02-24T11:41:32.758Z,99291.53
2024-02-24T11:45:36.676Z,99303.34
2024-02-24T11:49:49.334Z,99305.72
2024-02-24T11:53:53.026Z,99299.19
2024-02-24T11:57:54.961Z,99293.81
2024-02-24T12:01:56.418Z,99300.84
2024-02-24T12:06:02.972Z,99313.63
2024-02-24T12:10:06.823Z,99287.69
2024-02-24T12:14:11.701Z,99299.25
2024-02-24T12:18:13.932Z,99298.97
2024-02-24T12:22:15.607Z,99300.75
2024-02-24T12:26:21.624Z,99304.66
2024-02-24T12:30:23.834Z,99300.94
2024-02-24T12:34:25.741Z,99313.59
2024-02-24T12:38:28.736Z,99312.31
2024-02-24T12:42:30.167Z,99322.69
2024-02-24T12:46:32.379Z,99320.19
2024-02-24T12:50:34.011Z,99328.34
2024-02-24T12:54:35.509Z,99320.03
2024-02-24T12:58:39.908Z,99326.59
2024-02-24T13:02:42.124Z,99340.81
2024-02-24T13:06:44.061Z,99317.63
2024-02-24T13:10:46.984Z,99330.63
2024-02-24T13:14:48.646Z,99322.06
2024-02-24T13:18:50.074Z,99321.97
2024-02-24T13:22:51.665Z,99331.81
2024-02-24T13:26:53.184Z,99327.66
2024-02-24T13:30:55.929Z,99341.81
2024-02-24T13:34:57.387Z,99336.25
2024-02-24T13:38:58.945Z,99339.13
2024-02-24T13:43:01.451Z,99338.38
2024-02-24T13:47:03.071Z,99343.59
2024-02-24T13:51:05.884Z,99340.16
2024-02-24T13:55:07.849Z,99334.03
2024-02-24T13:59:09.443Z,99340.63
2024-02-24T14:03:10.986Z,99338.00
2024-02-24T14:07:14.965Z,99337.88
2024-02-24T14:11:16.504Z,99335.88
2024-02-24T14:15:20.567Z,99337.81
2024-02-24T14:19:24.067Z,99341.03
2024-02-24T14:23:25.676Z,99334.19
2024-02-24T14:27:27.121Z,99335.53
2024-02-24T14:31:28.728Z,99333.06
2024-02-24T14:35:30.640Z,99339.94
2024-02-24T14:39:32.159Z,99347.75
2024-02-24T14:43:33.933Z,99353.78
2024-02-24T14:47:35.642Z,99357.75
2024-02-24T14:51:37.203Z,99355.78
2024-02-24T14:55:38.739Z,99359.00
2024-02-24T14:59:42.056Z,99372.16
2024-02-24T15:03:45.395Z,99363.28
2024-02-24T15:07:47.298Z,99375.47
2024-02-24T15:11:48.808Z,99378.78
2024-02-24T15:15:50.525Z,99384.06
2024-02-24T15:19:52.882Z,99377.38
2024-02-24T15:23:54.406Z,99378.97
2024-02-24T15:27:55.923Z,99384.91
2024-02-24T15:31:57.461Z,99398.97
2024-02-24T15:36:01.071Z,99414.84
2024-02-24T15:40:08.903Z,99414.66
2024-02-24T15:44:16.387Z,99416.63
2024-02-24T15:48:18.243Z,99417.00
2024-02-24T15:52:19.747Z,99411.16
2024-02-24T15:56:21.327Z,99423.00
2024-02-24T16:00:23.282Z,99419.91
2024-02-24T16:04:25.044Z,99425.56
2024-02-24T16:08:28.277Z,99433.63
2024-02-24T16:12:29.853Z,99439.03
2024-02-24T16:16:31.458Z,99441.59
2024-02-24T16:20:33.482Z,99449.03
2024-02-24T16:24:34.970Z,99453.25
2024-02-24T16:28:36.432Z,99453.84
2024-02-24T16:32:38.274Z,99469.72
2024-02-24T16:36:40.309Z,99476.84
2024-02-24T16:40:42.257Z,99479.25
2024-02-24T16:44:44.150Z,99473.69
2024-02-24T16:48:45.782Z,99479.19
2024-02-24T16:52:47.322Z,99498.09
2024-02-24T16:56:48.783Z,99497.56
2024-02-24T17:00:51.101Z,99506.72
2024-02-24T17:04:55.835Z,99508.22
2024-02-24T17:08:57.491Z,99517.09
2024-02-24T17:13:03.680Z,99523.03
2024-02-24T17:17:05.221Z,99523.59
2024-02-24T17:21:06.650Z,99532.47
2024-02-24T17:25:08.540Z,99537.63
2024-02-24T17:29:09.955Z,99537.78
2024-02-24T17:33:11.654Z,99538.16
2024-02-24T17:37:13.233Z,99544.25
2024-02-24T17:41:16.897Z,99545.56
2024-02-24T17:45:19.094Z,99551.97
2024-02-24T17:49:26.139Z,99560.06
2024-02-24T17:53:27.769Z,99562.91
2024-02-24T17:57:30.214Z,99559.53
2024-02-24T18:01:31.615Z,99565.63
2024-02-24T18:05:33.306Z,99567.38
2024-02-24T18:09:36.695Z,99567.47
2024-02-24T18:13:38.244Z,99572.59
2024-02-24T18:17:39.950Z,99571.88
2024-02-24T18:21:41.574Z,99589.03
2024-02-24T18:25:43.101Z,99583.47
2024-02-24T18:29:45.579Z,99579.81
2024-02-24T18:33:47.268Z,99589.31
2024-02-24T18:37:48.840Z,99592.69
2024-02-24T18:41:50.462Z,99593.13
2024-02-24T18:45:51.896Z,99582.97
2024-02-24T18:49:54.388Z,99583.00
2024-02-24T18:53:55.838Z,99590.25
2024-02-24T18:57:57.455Z,99587.63
2024-02-24T19:01:58.893Z,99595.03
2024-02-24T19:06:00.706Z,99589.97
2024-02-24T19:10:02.318Z,99588.47
2024-02-24T19:14:03.785Z,99590.19
2024-02-24T19:18:05.904Z,99588.16
2024-02-24T19:22:07.510Z,99584.56
2024-02-24T19:26:09.212Z,99597.50
2024-02-24T19:30:11.407Z,99599.09
2024-02-24T19:34:15.197Z,99599.91
2024-02-24T19:38:16.855Z,99595.72
2024-02-24T19:42:18.523Z,99592.59
2024-02-24T19:46:20.031Z,99602.66
2024-02-24T19:50:21.680Z,99591.91
2024-02-24T19:54:25.223Z,99596.97
2024-02-24T19:58:33.317Z,99600.78
2024-02-24T20:02:38.617Z,99598.25
2024-02-24T20:06:40.574Z,99603.41
2024-02-24T20:10:42.574Z,99596.88
2024-02-24T20:14:50.060Z,99592.44
2024-02-24T20:18:52.526Z,99587.50
2024-02-24T20:22:54.455Z,99588.72
2024-02-24T20:26:56.074Z,99591.19
2024-02-24T20:30:57.567Z,99596.72
2024-02-24T20:34:59.109Z,99597.69
2024-02-24T20:39:00.888Z,99601.50
2024-02-24T20:43:02.415Z,99597.09
2024-02-24T20:47:04.038Z,99592.66
2024-02-24T20:51:06.880Z,99587.75
2024-02-24T20:55:09.198Z,99595.47
2024-02-24T20:59:11.025Z,99592.19
2024-02-24T21:03:12.768Z,99584.28
2024-02-24T21:07:14.366Z,99584.88
2024-02-24T21:11:16.011Z,99583.75
2024-02-24T21:15:17.470Z,99579.75
2024-02-24T21:19:19.228Z,99581.81
2024-02-24T21:23:20.717Z,99580.56
2024-02-24T21:27:23.413Z,99575.63
2024-02-24T21:31:24.902Z,99576.03
2024-02-24T21:35:31.453Z,99570.31
2024-02-24T21:39:33.081Z,99565.84
2024-02-24T21:43:34.632Z,99563.47
2024-02-24T21:47:36.141Z,99560.75
2024-02-24T21:51:38.649Z,99557.34
2024-02-24T21:55:40.378Z,99560.59
2024-02-24T21:59:42.042Z,99559.63
2024-02-24T22:03:43.599Z,99544.47
2024-02-24T22:07:45.175Z,99543.22
2024-02-24T22:11:46.906Z,99534.91
2024-02-24T22:15:48.446Z,99539.81
2024-02-24T22:19:49.908Z,99539.03
2024-02-24T22:23:53.110Z,99527.13
2024-02-24T22:27:54.698Z,99526.41
2024-02-24T22:31:56.288Z,99532.63
2024-02-24T22:35:57.952Z,99521.72
2024-02-24T22:39:59.454Z,99518.81
2024-02-24T22:44:00.978Z,99521.88
2024-02-24T22:48:02.794Z,99510.00
2024-02-24T22:52:05.460Z,99508.50
2024-02-24T22:56:07.650Z,99514.03
2024-02-24T23:00:14.497Z,99503.94
2024-02-24T23:04:16.591Z,99505.53
2024-02-24T23:08:17.981Z,99500.19
2024-02-24T23:12:19.505Z,99496.97
2024-02-24T23:16:21.181Z,99494.06
2024-02-24T23:20:22.620Z,99484.16
2024-02-24T23:24:24.040Z,99494.56
2024-02-24T23:28:25.790Z,99488.69
2024-02-24T23:32:27.356Z,99484.16
2024-02-24T23:36:29.643Z,99491.06
2024-02-24T23:40:31.150Z,99471.19
2024-02-24T23:44:32.612Z,99478.50
2024-02-24T23:48:44.762Z,99474.09
2024-02-24T23:52:46.628Z,99468.72
2024-02-24T23:56:48.203Z,99466.66
